Mia 1 — 9HB5653 — position and weather

sailwx.info

Track history (hours):
 
Tides and Currents Weather Stations Pressure Air Temp Water Temp Dewpoint Dewpoint Depression Visibility Wind Speed Wind Dir Waves Ship Positions

Mia 1

Last reported at 2018-Sep-04 09:49 UTC. Time now 2018-Dec-10 21:59 UTC.
Position N 37°09' E 025°47'.
Warning: this ship's position is months out of date.

; draft 3.5 m.

Type: Sailing vessel. MMSI: 215000866.

Date/timePositionNaut miles runAvg speedWind from/ knotsBaromVisibWave heightAir tempDewpointWater temp
2018-Sep-04 09:49N 37°09' E 025°47'310.1
2018-Sep-04 09:30N 37°10' E 025°43'11 8.4
2018-Sep-04 08:15N 37°13' E 025°30'210.6
2018-Sep-04 08:03N 37°14' E 025°28'010.7
2018-Sep-04 08:01N 37°14' E 025°27'510.8
2018-Sep-04 07:30N 37°15' E 025°21'511.0
2018-Sep-04 07:04N 37°16' E 025°15'110.9
2018-Sep-04 07:00N 37°16' E 025°14'510.8
2018-Sep-04 06:30N 37°18' E 025°07'510.4
2018-Sep-04 06:04N 37°19' E 025°02'110.4
2018-Sep-04 06:01N 37°19' E 025°01'510.3
2018-Sep-04 05:30N 37°21' E 024°55'510.1
2018-Sep-04 05:03N 37°22' E 024°49'010.1
2018-Sep-04 05:01N 37°23' E 024°49'57 3.1
2018-Sep-03 10:56N 37°44' E 023°43'510.7
2018-Sep-03 10:30N 37°46' E 023°38'511.2
2018-Sep-03 10:04N 37°47' E 023°32'111.1
2018-Sep-03 10:00N 37°48' E 023°31'510.8
2018-Sep-03 09:31N 37°49' E 023°24'510.7
2018-Sep-03 09:03N 37°51' E 023°18'010.7
2018-Sep-03 09:01N 37°51' E 023°18'610.9
2018-Sep-03 08:30N 37°52' E 023°11'510.7
2018-Sep-03 08:04N 37°54' E 023°05'110.6
2018-Sep-03 08:01N 37°54' E 023°05'3 6.7
2018-Sep-03 07:30N 37°55' E 023°01'0 0.0
2018-Sep-03 07:03N 37°55' E 023°01'0 0.0
2018-Sep-03 07:00N 37°55' E 023°01'0 0.0
2018-Sep-03 06:31N 37°55' E 023°01'0 0.0
2018-Sep-03 06:04N 37°55' E 023°01'0 0.2
2018-Sep-03 06:00N 37°55' E 023°01'3 3.7
2018-Sep-03 05:13N 37°57' E 022°58'1 4.9
2018-Sep-03 05:04N 37°58' E 022°57'0 0.4
2018-Sep-03 05:00N 37°58' E 022°57'0 0.3
2018-Sep-03 04:30N 37°58' E 022°57'3 6.3
2018-Sep-03 04:04N 37°59' E 022°54'110.1
2018-Sep-03 04:00N 37°59' E 022°54'610.2
2018-Sep-03 03:26N 38°03' E 022°47'  
Track history (hours):
 
Tides and Currents Weather Stations Pressure Air Temp Water Temp Dewpoint Dewpoint Depression Visibility Wind Speed Wind Dir Waves Ship Positions

Mia 1

Last reported at 2018-Sep-04 09:49 UTC. Time now 2018-Dec-10 21:59 UTC.
Position N 37°09' E 025°47'.
Warning: this ship's position is months out of date.

; draft 3.5 m.

Type: Sailing vessel. MMSI: 215000866.

Date/timePositionNaut miles runAvg speedWind from/ knotsBaromVisibWave heightAir tempDewpointWater temp
2018-Sep-04 09:49N 37°09' E 025°47'310.1
2018-Sep-04 09:30N 37°10' E 025°43'11 8.4
2018-Sep-04 08:15N 37°13' E 025°30'210.6
2018-Sep-04 08:03N 37°14' E 025°28'010.7
2018-Sep-04 08:01N 37°14' E 025°27'510.8
2018-Sep-04 07:30N 37°15' E 025°21'511.0
2018-Sep-04 07:04N 37°16' E 025°15'110.9
2018-Sep-04 07:00N 37°16' E 025°14'510.8
2018-Sep-04 06:30N 37°18' E 025°07'510.4
2018-Sep-04 06:04N 37°19' E 025°02'110.4
2018-Sep-04 06:01N 37°19' E 025°01'510.3
2018-Sep-04 05:30N 37°21' E 024°55'510.1
2018-Sep-04 05:03N 37°22' E 024°49'010.1
2018-Sep-04 05:01N 37°23' E 024°49'57 3.1
2018-Sep-03 10:56N 37°44' E 023°43'510.7
2018-Sep-03 10:30N 37°46' E 023°38'511.2
2018-Sep-03 10:04N 37°47' E 023°32'111.1
2018-Sep-03 10:00N 37°48' E 023°31'510.8
2018-Sep-03 09:31N 37°49' E 023°24'510.7
2018-Sep-03 09:03N 37°51' E 023°18'010.7
2018-Sep-03 09:01N 37°51' E 023°18'610.9
2018-Sep-03 08:30N 37°52' E 023°11'510.7
2018-Sep-03 08:04N 37°54' E 023°05'110.6
2018-Sep-03 08:01N 37°54' E 023°05'3 6.7
2018-Sep-03 07:30N 37°55' E 023°01'0 0.0
2018-Sep-03 07:03N 37°55' E 023°01'0 0.0
2018-Sep-03 07:00N 37°55' E 023°01'0 0.0
2018-Sep-03 06:31N 37°55' E 023°01'0 0.0
2018-Sep-03 06:04N 37°55' E 023°01'0 0.2
2018-Sep-03 06:00N 37°55' E 023°01'3 3.7
2018-Sep-03 05:13N 37°57' E 022°58'1 4.9
2018-Sep-03 05:04N 37°58' E 022°57'0 0.4
2018-Sep-03 05:00N 37°58' E 022°57'0 0.3
2018-Sep-03 04:30N 37°58' E 022°57'3 6.3
2018-Sep-03 04:04N 37°59' E 022°54'110.1
2018-Sep-03 04:00N 37°59' E 022°54'610.2
2018-Sep-03 03:26N 38°03' E 022°47'  

Dump ship's entire track history